メインページ
METAR-TAF:

METAR-TAF

空港 :

ハト国際空港

キュラソー島, オランダ領アンティル

緯度: 12-12N, 経度: 068-58W, 海抜: 9m

現時点の気象観測

当レポートは24分前の06:00(UTC)に作成
の風 13kt
気温 28°C
湿度 74%
気圧 1009 hPa
視程10km以上
高度3900ftの雲は散在している

METAR: TNCC 200600Z AUTO 08013KT 9999 SCT039 28/23 Q1009 TEMPO 07015G26KT 5000 SHRA BKN012TCU

時間: 02:24 (06:24 UTC)

予報

当レポートは2時間24分前の04:00(UTC)に作成
予報は20日の 06時(UTC)から 21日の 06時(UTC)まで有効
の風 11kt
視程10km以上
高度1600ftの雲は散在している
20日の 06時(UTC)から 21日の 06時(UTC)まで一時的に
北東の風 15kt、最大26ktの突風を伴う
視程: 5000m
高度1400ftの千切れ雲あり
にわか雨

TAF: TNCC 200400Z 2006/2106 08011KT 9999 SCT016 TEMPO 2006/2106 05015G26KT 5000 SHRA BKN014

4,000以上の空港の気象観測と天気予報(METAR報とTAF報)

利用可能な観測所は地図上に黄色い丸と赤い丸で示す。

丸の上にカーソルを重ねると観測所名を参照できる。

次にクリックすると気象観測と天気予報を参照できる。

マップの切り替え:黒色「×」印の緑ボタンをクリックして拡大、「-」印の緑ボタンをクリックして縮小、緑色の三角印をクリックして隣りの地図に切り替え


METAR-TAF: